createdAt,value
2023-05-06T00:02:40.967Z,100727.41
2023-05-06T00:05:43.488Z,100721.28
2023-05-06T00:08:46.062Z,100717.72
2023-05-06T00:11:47.689Z,100718.34
2023-05-06T00:14:49.403Z,100711.63
2023-05-06T00:17:51.192Z,100710.84
2023-05-06T00:20:52.896Z,100712.09
2023-05-06T00:23:54.437Z,100726.59
2023-05-06T00:26:56.785Z,100724.47
2023-05-06T00:29:58.428Z,100716.25
2023-05-06T00:33:00.087Z,100732.59
2023-05-06T00:36:01.766Z,100729.97
2023-05-06T00:39:03.869Z,100717.94
2023-05-06T00:42:06.732Z,100718.97
2023-05-06T00:45:08.965Z,100727.81
2023-05-06T00:48:10.828Z,100727.97
2023-05-06T00:51:13.488Z,100729.19
2023-05-06T00:54:15.300Z,100738.00
2023-05-06T00:57:16.974Z,100730.19
2023-05-06T01:00:20.264Z,100729.97
2023-05-06T01:03:22.414Z,100717.16
2023-05-06T01:06:35.791Z,100727.53
2023-05-06T01:09:40.071Z,100732.41
2023-05-06T01:12:51.770Z,100712.84
2023-05-06T01:15:55.901Z,100725.28
2023-05-06T01:19:00.344Z,100707.59
2023-05-06T01:22:05.850Z,100700.66
2023-05-06T01:25:07.892Z,100718.34
2023-05-06T01:28:11.674Z,100723.88
2023-05-06T01:31:20.675Z,100721.34
2023-05-06T01:34:34.394Z,100718.03
2023-05-06T01:37:47.963Z,100705.09
2023-05-06T01:40:54.315Z,100723.66
2023-05-06T01:43:59.254Z,100707.88
2023-05-06T01:47:01.903Z,100708.25
2023-05-06T01:50:04.608Z,100699.09
2023-05-06T01:53:06.198Z,100712.06
2023-05-06T01:56:07.881Z,100697.22
2023-05-06T01:59:09.826Z,100699.19
2023-05-06T02:02:11.521Z,100704.41
2023-05-06T02:05:13.069Z,100698.69
2023-05-06T02:08:14.661Z,100706.81
2023-05-06T02:11:16.465Z,100706.81
2023-05-06T02:14:18.035Z,100702.56
2023-05-06T02:17:19.630Z,100696.47
2023-05-06T02:20:21.300Z,100695.69
2023-05-06T02:23:23.025Z,100716.97
2023-05-06T02:26:24.605Z,100712.50
2023-05-06T02:29:26.202Z,100708.88
2023-05-06T02:32:27.860Z,100695.44
2023-05-06T02:35:29.457Z,100709.13
2023-05-06T02:38:31.295Z,100714.16
2023-05-06T02:41:32.892Z,100709.75
2023-05-06T02:44:34.458Z,100716.00
2023-05-06T02:47:36.447Z,100710.16
2023-05-06T02:50:38.043Z,100710.16
2023-05-06T02:53:39.619Z,100712.91
2023-05-06T02:56:43.233Z,100704.50
2023-05-06T02:59:44.878Z,100710.38
2023-05-06T03:02:46.481Z,100711.34
2023-05-06T03:05:48.070Z,100697.28
2023-05-06T03:08:49.644Z,100720.25
2023-05-06T03:11:51.191Z,100697.31
2023-05-06T03:14:52.758Z,100713.34
2023-05-06T03:17:54.376Z,100699.38
2023-05-06T03:20:56.006Z,100711.47
2023-05-06T03:23:57.592Z,100715.19
2023-05-06T03:26:59.153Z,100714.38
2023-05-06T03:30:00.852Z,100708.91
2023-05-06T03:33:02.573Z,100708.44
2023-05-06T03:36:04.936Z,100715.44
2023-05-06T03:39:06.541Z,100720.38
2023-05-06T03:42:09.769Z,100700.53
2023-05-06T03:45:11.900Z,100717.47
2023-05-06T03:48:13.960Z,100723.41
2023-05-06T03:51:15.886Z,100726.81
2023-05-06T03:54:17.492Z,100726.31
2023-05-06T03:57:19.075Z,100724.13
2023-05-06T04:00:20.930Z,100724.59
2023-05-06T04:03:22.602Z,100732.59
2023-05-06T04:06:24.293Z,100720.97
2023-05-06T04:09:25.856Z,100724.38
2023-05-06T04:12:27.579Z,100728.75
2023-05-06T04:15:32.007Z,100735.25
2023-05-06T04:18:34.337Z,100741.03
2023-05-06T04:21:36.021Z,100746.94
2023-05-06T04:24:37.674Z,100750.44
2023-05-06T04:27:39.287Z,100738.41
2023-05-06T04:30:41.210Z,100732.03
2023-05-06T04:33:43.052Z,100744.78
2023-05-06T04:36:44.665Z,100750.38
2023-05-06T04:39:47.054Z,100749.63
2023-05-06T04:42:48.636Z,100740.19
2023-05-06T04:45:50.360Z,100754.00
2023-05-06T04:48:51.990Z,100746.75
2023-05-06T04:51:53.550Z,100746.63
2023-05-06T04:54:55.130Z,100739.94
2023-05-06T04:57:56.672Z,100756.50
2023-05-06T05:01:04.056Z,100734.75
2023-05-06T05:04:05.627Z,100746.56
2023-05-06T05:07:07.629Z,100744.63
2023-05-06T05:10:10.484Z,100751.56
2023-05-06T05:13:12.164Z,100754.44
2023-05-06T05:16:13.890Z,100755.34
2023-05-06T05:19:15.455Z,100755.75
2023-05-06T05:22:17.064Z,100762.25
2023-05-06T05:25:18.735Z,100760.34
2023-05-06T05:28:20.284Z,100755.28
2023-05-06T05:31:21.946Z,100746.28
2023-05-06T05:34:23.586Z,100749.88
2023-05-06T05:37:25.237Z,100753.25
2023-05-06T05:40:26.918Z,100736.19
2023-05-06T05:43:28.495Z,100759.59
2023-05-06T05:46:30.362Z,100751.28
2023-05-06T05:49:32.191Z,100757.28
2023-05-06T05:52:33.906Z,100752.66
2023-05-06T05:55:35.462Z,100758.09
2023-05-06T05:58:37.000Z,100762.00
2023-05-06T06:01:38.603Z,100750.63
2023-05-06T06:04:40.241Z,100745.09
2023-05-06T06:07:42.005Z,100755.28
2023-05-06T06:10:43.570Z,100741.91
2023-05-06T06:13:45.136Z,100750.75
2023-05-06T06:16:46.816Z,100751.25
2023-05-06T06:19:48.572Z,100753.16
2023-05-06T06:22:50.146Z,100734.94
2023-05-06T06:25:51.723Z,100749.34
2023-05-06T06:28:53.296Z,100755.34
2023-05-06T06:31:58.319Z,100736.97
2023-05-06T06:34:59.955Z,100758.97
2023-05-06T06:38:01.643Z,100734.53
2023-05-06T06:41:03.761Z,100761.00
2023-05-06T06:44:06.086Z,100752.50
2023-05-06T06:47:07.690Z,100743.31
2023-05-06T06:50:09.894Z,100756.78
2023-05-06T06:53:11.566Z,100750.69
2023-05-06T06:56:13.211Z,100751.22
2023-05-06T06:59:14.912Z,100756.88
2023-05-06T07:02:16.489Z,100755.97
2023-05-06T07:05:18.580Z,100750.97
2023-05-06T07:08:21.605Z,100751.91
2023-05-06T07:11:23.151Z,100758.56
2023-05-06T07:14:25.853Z,100762.59
2023-05-06T07:17:27.387Z,100761.03
2023-05-06T07:20:28.961Z,100765.53
2023-05-06T07:23:32.159Z,100752.66
2023-05-06T07:26:37.784Z,100751.66
2023-05-06T07:29:39.399Z,100740.97
2023-05-06T07:32:41.436Z,100745.59
2023-05-06T07:35:43.087Z,100743.56
2023-05-06T07:38:45.213Z,100739.31
2023-05-06T07:41:46.787Z,100746.78
2023-05-06T07:44:48.332Z,100747.00
2023-05-06T07:47:50.181Z,100751.97
2023-05-06T07:50:51.770Z,100744.78
2023-05-06T07:53:53.351Z,100754.50
2023-05-06T07:56:54.965Z,100750.22
2023-05-06T07:59:58.445Z,100764.78
2023-05-06T08:03:00.267Z,100766.91
2023-05-06T08:06:02.137Z,100760.56
2023-05-06T08:09:03.866Z,100764.06
2023-05-06T08:12:05.801Z,100746.34
2023-05-06T08:15:08.219Z,100754.06
2023-05-06T08:18:20.643Z,100751.56
2023-05-06T08:21:23.702Z,100764.38
2023-05-06T08:24:25.324Z,100750.38
2023-05-06T08:27:26.924Z,100745.66
2023-05-06T08:30:28.742Z,100759.81
2023-05-06T08:33:30.921Z,100758.28
2023-05-06T08:36:32.497Z,100759.09
2023-05-06T08:39:34.084Z,100770.34
2023-05-06T08:42:36.980Z,100757.25
2023-05-06T08:48:41.377Z,100758.06
2023-05-06T08:51:44.396Z,100756.75
2023-05-06T08:54:48.219Z,100752.09
2023-05-06T08:57:53.292Z,100751.63
2023-05-06T09:00:54.908Z,100755.66
2023-05-06T09:03:58.212Z,100748.25
2023-05-06T09:06:59.869Z,100749.00
2023-05-06T09:10:12.418Z,100746.81
2023-05-06T09:13:16.122Z,100745.41
2023-05-06T09:16:30.708Z,100744.03
2023-05-06T09:19:32.442Z,100757.50
2023-05-06T09:22:34.027Z,100736.41
2023-05-06T09:25:36.970Z,100736.63
2023-05-06T09:28:38.603Z,100738.63
2023-05-06T09:31:42.718Z,100730.84
2023-05-06T09:34:46.445Z,100728.31
2023-05-06T09:37:48.061Z,100728.59
2023-05-06T09:40:49.751Z,100724.50
2023-05-06T09:43:56.106Z,100719.56
2023-05-06T09:46:58.088Z,100717.13
2023-05-06T09:50:00.846Z,100714.28
2023-05-06T09:53:05.045Z,100710.16
2023-05-06T09:56:07.746Z,100709.47
2023-05-06T09:59:11.146Z,100707.50
2023-05-06T10:02:15.845Z,100707.69
2023-05-06T10:05:18.482Z,100700.94
2023-05-06T10:08:23.766Z,100690.50
2023-05-06T10:11:26.644Z,100692.31
2023-05-06T10:14:28.608Z,100690.97
2023-05-06T10:17:32.257Z,100685.47
2023-05-06T10:20:38.809Z,100680.25
2023-05-06T10:23:49.245Z,100680.41
2023-05-06T10:26:54.869Z,100656.41
2023-05-06T10:29:59.973Z,100658.59
2023-05-06T10:33:07.503Z,100680.97
2023-05-06T10:36:27.783Z,100655.13
2023-05-06T10:39:29.618Z,100657.19
2023-05-06T10:42:35.352Z,100649.66
2023-05-06T10:46:13.097Z,100647.72
2023-05-06T10:49:14.962Z,100649.25
2023-05-06T10:52:17.425Z,100627.81
2023-05-06T10:55:29.183Z,100636.09
2023-05-06T10:58:36.374Z,100624.56
2023-05-06T11:01:40.471Z,100632.28
2023-05-06T11:04:42.262Z,100632.16
2023-05-06T11:07:43.856Z,100624.84
2023-05-06T11:10:45.552Z,100618.78
2023-05-06T11:13:52.364Z,100622.69
2023-05-06T11:16:54.861Z,100623.94
2023-05-06T11:20:18.091Z,100623.38
2023-05-06T11:23:19.652Z,100621.16
2023-05-06T11:26:21.391Z,100629.28
2023-05-06T11:29:23.703Z,100621.41
2023-05-06T11:32:29.019Z,100613.78
2023-05-06T11:35:37.464Z,100618.22
2023-05-06T11:38:52.908Z,100608.34
2023-05-06T11:41:54.835Z,100612.66
2023-05-06T11:45:02.345Z,100606.66
2023-05-06T11:48:04.023Z,100616.06
2023-05-06T11:51:05.638Z,100610.81
2023-05-06T11:54:10.952Z,100620.25
2023-05-06T11:57:13.718Z,100620.06
2023-05-06T12:00:15.659Z,100620.53
2023-05-06T12:03:18.096Z,100623.09
2023-05-06T12:06:31.489Z,100625.19
2023-05-06T12:09:34.509Z,100612.28
2023-05-06T12:12:36.342Z,100611.25
2023-05-06T12:15:38.409Z,100610.59
2023-05-06T12:18:40.116Z,100610.22
2023-05-06T12:21:41.758Z,100606.22
2023-05-06T12:24:43.534Z,100611.41
2023-05-06T12:27:45.608Z,100604.41
2023-05-06T12:30:47.414Z,100607.19
2023-05-06T12:33:50.370Z,100614.06
2023-05-06T12:36:52.135Z,100606.25
2023-05-06T12:39:57.819Z,100593.84
2023-05-06T12:43:00.565Z,100604.81
2023-05-06T12:46:09.032Z,100601.75
2023-05-06T12:49:10.669Z,100598.19
2023-05-06T12:52:12.369Z,100581.84
2023-05-06T12:55:13.963Z,100592.41
2023-05-06T12:58:16.449Z,100585.75
2023-05-06T13:01:18.857Z,100580.19
2023-05-06T13:04:23.807Z,100584.06
2023-05-06T13:07:25.372Z,100578.34
2023-05-06T13:10:26.935Z,100592.06
2023-05-06T13:13:31.063Z,100586.94
2023-05-06T13:16:32.773Z,100571.50
2023-05-06T13:19:34.482Z,100581.34
2023-05-06T13:22:50.742Z,100563.56
2023-05-06T13:26:04.273Z,100557.06
2023-05-06T13:29:07.241Z,100569.72
2023-05-06T13:32:09.183Z,100571.25
2023-05-06T13:35:11.080Z,100562.31
2023-05-06T13:38:12.888Z,100563.72
2023-05-06T13:41:14.690Z,100572.31
2023-05-06T13:44:17.091Z,100567.81
2023-05-06T13:47:18.665Z,100563.47
2023-05-06T13:50:20.566Z,100548.53
2023-05-06T13:53:22.483Z,100555.22
2023-05-06T13:56:24.073Z,100558.56
2023-05-06T13:59:25.996Z,100545.16
2023-05-06T14:02:28.047Z,100553.44
2023-05-06T14:05:29.645Z,100543.59
2023-05-06T14:08:32.777Z,100550.63
2023-05-06T14:11:34.393Z,100562.13
2023-05-06T14:14:35.946Z,100544.81
2023-05-06T14:17:38.480Z,100551.63
2023-05-06T14:20:40.125Z,100542.09
2023-05-06T14:23:41.837Z,100547.63
2023-05-06T14:26:45.992Z,100541.97
2023-05-06T14:29:47.713Z,100550.72
2023-05-06T14:32:49.435Z,100538.63
2023-05-06T14:35:52.805Z,100536.00
2023-05-06T14:38:54.412Z,100541.41
2023-05-06T14:41:56.047Z,100542.97
2023-05-06T14:44:57.614Z,100545.97
2023-05-06T14:47:59.279Z,100557.34
2023-05-06T14:51:00.885Z,100542.28
2023-05-06T14:54:02.557Z,100546.78
2023-05-06T14:57:04.206Z,100546.56
2023-05-06T15:00:09.979Z,100543.56
2023-05-06T15:03:11.653Z,100548.88
2023-05-06T15:06:13.233Z,100552.69
2023-05-06T15:09:14.893Z,100553.78
2023-05-06T15:12:16.526Z,100559.75
2023-05-06T15:15:18.125Z,100557.16
2023-05-06T15:18:19.680Z,100562.78
2023-05-06T15:21:21.274Z,100561.31
2023-05-06T15:24:23.360Z,100551.41
2023-05-06T15:27:24.914Z,100555.31
2023-05-06T15:30:26.479Z,100546.25
2023-05-06T15:33:34.027Z,100539.03
2023-05-06T15:36:35.565Z,100545.66
2023-05-06T15:39:39.885Z,100531.19
2023-05-06T15:42:41.539Z,100542.97
2023-05-06T15:45:43.132Z,100530.28
2023-05-06T15:48:45.712Z,100540.84
2023-05-06T15:51:47.374Z,100542.47
2023-05-06T15:54:49.932Z,100531.75
2023-05-06T15:57:53.657Z,100531.75
2023-05-06T16:00:55.233Z,100537.13
2023-05-06T16:03:56.941Z,100540.44
2023-05-06T16:06:58.749Z,100529.88
2023-05-06T16:10:00.311Z,100533.44
2023-05-06T16:13:01.935Z,100528.25
2023-05-06T16:16:03.730Z,100530.13
2023-05-06T16:19:05.382Z,100531.16
2023-05-06T16:22:13.375Z,100522.06
2023-05-06T16:25:14.959Z,100540.84
2023-05-06T16:28:16.561Z,100544.75
2023-05-06T16:31:18.210Z,100555.47
2023-05-06T16:34:19.847Z,100553.41
2023-05-06T16:37:21.569Z,100539.53
2023-05-06T16:40:24.415Z,100549.63
2023-05-06T16:43:26.010Z,100562.00
2023-05-06T16:46:28.968Z,100563.03
2023-05-06T16:49:30.618Z,100557.66
2023-05-06T16:52:32.180Z,100558.88
2023-05-06T16:55:34.161Z,100560.09
2023-05-06T16:58:35.751Z,100542.69
2023-05-06T17:01:37.326Z,100560.00
2023-05-06T17:04:38.890Z,100556.50
2023-05-06T17:07:40.507Z,100562.75
2023-05-06T17:10:43.448Z,100548.19
2023-05-06T17:13:45.088Z,100547.16
2023-05-06T17:16:47.154Z,100553.81
2023-05-06T17:19:48.842Z,100544.88
2023-05-06T17:22:50.454Z,100538.91
2023-05-06T17:25:52.041Z,100538.94
2023-05-06T17:28:53.610Z,100542.53
2023-05-06T17:31:55.195Z,100538.34
2023-05-06T17:34:56.886Z,100543.56
2023-05-06T17:37:58.457Z,100537.16
2023-05-06T17:41:00.031Z,100546.41
2023-05-06T17:44:01.786Z,100548.75
2023-05-06T17:47:03.517Z,100540.19
2023-05-06T17:50:05.649Z,100540.97
2023-05-06T17:53:07.279Z,100543.34
2023-05-06T17:56:08.838Z,100552.84
2023-05-06T17:59:11.376Z,100556.81
2023-05-06T18:02:15.858Z,100559.44
2023-05-06T18:05:17.709Z,100558.50
2023-05-06T18:08:19.331Z,100552.59
2023-05-06T18:11:21.262Z,100555.00
2023-05-06T18:14:22.864Z,100564.84
2023-05-06T18:17:24.457Z,100572.94
2023-05-06T18:20:26.812Z,100586.31
2023-05-06T18:23:29.631Z,100586.50
2023-05-06T18:26:43.974Z,100575.00
2023-05-06T18:29:46.679Z,100586.22
2023-05-06T18:32:50.693Z,100595.25
2023-05-06T18:35:53.017Z,100587.41
2023-05-06T18:38:54.621Z,100595.34
2023-05-06T18:41:56.193Z,100593.56
2023-05-06T18:44:58.096Z,100580.50
2023-05-06T18:47:59.767Z,100590.91
2023-05-06T18:51:12.744Z,100595.69
2023-05-06T18:54:15.661Z,100600.84
2023-05-06T18:57:19.572Z,100588.59
2023-05-06T19:00:22.572Z,100591.13
2023-05-06T19:03:24.172Z,100590.41
2023-05-06T19:06:25.764Z,100598.28
2023-05-06T19:09:27.421Z,100596.53
2023-05-06T19:12:30.592Z,100608.28
2023-05-06T19:15:32.186Z,100599.97
2023-05-06T19:18:33.737Z,100594.78
2023-05-06T19:21:35.872Z,100605.94
2023-05-06T19:24:37.434Z,100610.78
2023-05-06T19:27:39.011Z,100613.97
2023-05-06T19:30:40.692Z,100614.38
2023-05-06T19:33:42.626Z,100613.78
2023-05-06T19:36:44.195Z,100622.44
2023-05-06T19:39:46.590Z,100615.50
2023-05-06T19:42:48.171Z,100611.34
2023-05-06T19:45:49.730Z,100619.81
2023-05-06T19:48:51.299Z,100619.84
2023-05-06T19:51:52.832Z,100600.63
2023-05-06T19:54:54.481Z,100620.97
2023-05-06T19:57:56.977Z,100610.00
2023-05-06T20:00:59.819Z,100621.16
2023-05-06T20:04:01.499Z,100628.66
2023-05-06T20:07:03.893Z,100619.22
2023-05-06T20:10:06.075Z,100634.72
2023-05-06T20:13:07.730Z,100634.56
2023-05-06T20:16:09.881Z,100632.72
2023-05-06T20:19:11.819Z,100629.69
2023-05-06T20:22:13.536Z,100638.03
2023-05-06T20:25:17.543Z,100653.47
2023-05-06T20:28:19.194Z,100642.53
2023-05-06T20:31:20.984Z,100658.84
2023-05-06T20:34:22.588Z,100640.38
2023-05-06T20:37:24.561Z,100631.41
2023-05-06T20:40:26.261Z,100649.19
2023-05-06T20:43:27.843Z,100634.00
2023-05-06T20:46:29.452Z,100637.38
2023-05-06T20:49:31.004Z,100626.56
2023-05-06T20:52:33.971Z,100619.59
2023-05-06T20:55:35.913Z,100618.94
2023-05-06T20:58:37.569Z,100621.72
2023-05-06T21:01:39.281Z,100626.75
2023-05-06T21:04:41.778Z,100617.09
2023-05-06T21:07:43.374Z,100627.09
2023-05-06T21:10:45.086Z,100608.47
2023-05-06T21:13:48.212Z,100610.47
2023-05-06T21:16:52.127Z,100603.50
2023-05-06T21:19:53.789Z,100600.66
2023-05-06T21:22:55.535Z,100593.41
2023-05-06T21:25:59.355Z,100606.66
2023-05-06T21:29:00.925Z,100603.19
2023-05-06T21:32:02.508Z,100606.19
2023-05-06T21:35:04.470Z,100604.38
2023-05-06T21:38:06.141Z,100618.03
2023-05-06T21:41:08.915Z,100616.69
2023-05-06T21:44:10.520Z,100614.53
2023-05-06T21:47:12.060Z,100610.22
2023-05-06T21:50:13.834Z,100609.06
2023-05-06T21:53:15.554Z,100615.34
2023-05-06T21:56:21.202Z,100611.19
2023-05-06T21:59:22.889Z,100600.38
2023-05-06T22:02:24.601Z,100604.88
2023-05-06T22:05:26.294Z,100613.16
2023-05-06T22:08:29.888Z,100617.50
2023-05-06T22:11:31.478Z,100622.50
2023-05-06T22:14:40.483Z,100648.25
2023-05-06T22:17:42.923Z,100668.88
2023-05-06T22:20:44.805Z,100658.38
2023-05-06T22:23:46.478Z,100652.06
2023-05-06T22:26:48.067Z,100648.88
2023-05-06T22:29:49.731Z,100637.91
2023-05-06T22:32:51.350Z,100623.25
2023-05-06T22:35:53.200Z,100617.44
2023-05-06T22:38:55.331Z,100631.25
2023-05-06T22:41:57.240Z,100632.28
2023-05-06T22:44:58.828Z,100631.44
2023-05-06T22:48:00.604Z,100634.44
2023-05-06T22:51:03.331Z,100619.00
2023-05-06T22:54:05.024Z,100635.81
2023-05-06T22:57:06.720Z,100620.66
2023-05-06T23:00:10.559Z,100620.50
2023-05-06T23:03:12.448Z,100633.00
2023-05-06T23:06:14.006Z,100606.03
2023-05-06T23:09:15.602Z,100617.34
2023-05-06T23:12:17.158Z,100609.06
2023-05-06T23:15:18.772Z,100618.03
2023-05-06T23:18:20.904Z,100591.72
2023-05-06T23:21:22.807Z,100598.56
2023-05-06T23:24:24.387Z,100611.88
2023-05-06T23:27:26.099Z,100608.88
2023-05-06T23:30:27.812Z,100615.50
2023-05-06T23:33:29.410Z,100617.69
2023-05-06T23:36:31.144Z,100608.69
2023-05-06T23:39:32.740Z,100612.34
2023-05-06T23:42:34.299Z,100601.56
2023-05-06T23:45:35.934Z,100600.38
2023-05-06T23:48:37.880Z,100603.22
2023-05-06T23:51:39.471Z,100605.72
2023-05-06T23:54:41.050Z,100598.06
2023-05-06T23:57:42.709Z,100579.28
